createdAt,value
2019-05-21T00:00:33.047Z,14.91
2019-05-21T00:01:33.044Z,14.92
2019-05-21T00:02:33.039Z,14.88
2019-05-21T00:03:33.041Z,14.91
2019-05-21T00:04:33.037Z,14.88
2019-05-21T00:05:33.038Z,14.94
2019-05-21T00:06:33.035Z,14.91
2019-05-21T00:07:33.031Z,14.86
2019-05-21T00:08:33.029Z,14.86
2019-05-21T00:09:33.028Z,14.85
2019-05-21T00:10:33.025Z,14.89
2019-05-21T00:11:33.026Z,14.85
2019-05-21T00:12:33.022Z,14.70
2019-05-21T00:13:33.021Z,14.81
2019-05-21T00:14:33.018Z,14.79
2019-05-21T00:15:33.016Z,14.86
2019-05-21T00:16:33.014Z,14.81
2019-05-21T00:17:33.015Z,14.81
2019-05-21T00:18:33.018Z,14.69
2019-05-21T00:19:33.009Z,14.85
2019-05-21T00:20:33.008Z,14.73
2019-05-21T00:21:33.005Z,14.73
2019-05-21T00:22:33.013Z,14.72
2019-05-21T00:23:33.001Z,14.73
2019-05-21T00:24:33.011Z,14.79
2019-05-21T00:25:32.999Z,14.72
2019-05-21T00:26:32.998Z,14.70
2019-05-21T00:27:32.994Z,14.62
2019-05-21T00:28:32.990Z,14.77
2019-05-21T00:29:32.989Z,14.73
2019-05-21T00:30:32.990Z,14.77
2019-05-21T00:31:32.984Z,14.79
2019-05-21T00:32:32.982Z,14.65
2019-05-21T00:33:32.982Z,14.68
2019-05-21T00:34:43.432Z,14.65
2019-05-21T00:35:32.979Z,14.68
2019-05-21T00:36:32.975Z,14.66
2019-05-21T00:37:32.974Z,14.54
2019-05-21T00:38:32.971Z,14.59
2019-05-21T00:39:32.968Z,14.54
2019-05-21T00:40:32.967Z,14.51
2019-05-21T00:41:32.965Z,14.51
2019-05-21T00:42:32.963Z,14.47
2019-05-21T00:43:32.961Z,14.50
2019-05-21T00:44:32.959Z,14.48
2019-05-21T00:45:32.965Z,14.54
2019-05-21T00:46:32.954Z,14.53
2019-05-21T00:47:32.956Z,14.54
2019-05-21T00:48:32.951Z,14.51
2019-05-21T00:49:32.947Z,14.53
2019-05-21T00:50:32.952Z,14.44
2019-05-21T00:51:32.944Z,14.40
2019-05-21T00:52:32.944Z,14.55
2019-05-21T00:53:32.940Z,14.44
2019-05-21T00:54:32.937Z,14.50
2019-05-21T00:55:32.935Z,14.51
2019-05-21T00:56:32.933Z,14.54
2019-05-21T00:57:32.933Z,14.43
2019-05-21T00:58:32.928Z,14.50
2019-05-21T00:59:32.939Z,14.58
2019-05-21T01:00:32.924Z,14.54
2019-05-21T01:01:32.924Z,14.59
2019-05-21T01:02:32.922Z,14.40
2019-05-21T01:03:32.917Z,14.51
2019-05-21T01:04:32.917Z,14.51
2019-05-21T01:05:32.916Z,14.47
2019-05-21T01:06:32.911Z,14.45
2019-05-21T01:07:32.909Z,14.51
2019-05-21T01:08:32.907Z,14.55
2019-05-21T01:09:32.916Z,14.44
2019-05-21T01:10:32.903Z,14.45
2019-05-21T01:11:32.900Z,14.43
2019-05-21T01:12:32.899Z,14.45
2019-05-21T01:13:32.899Z,14.47
2019-05-21T01:14:32.898Z,14.51
2019-05-21T01:15:32.894Z,14.40
2019-05-21T01:16:32.893Z,14.50
2019-05-21T01:17:32.888Z,14.51
2019-05-21T01:18:32.887Z,14.54
2019-05-21T01:19:32.884Z,14.54
2019-05-21T01:20:32.882Z,14.45
2019-05-21T01:21:32.880Z,14.53
2019-05-21T01:22:32.891Z,14.51
2019-05-21T01:23:32.879Z,14.51
2019-05-21T01:24:32.874Z,14.45
2019-05-21T01:25:32.870Z,14.50
2019-05-21T01:26:32.868Z,14.51
2019-05-21T01:27:32.867Z,14.51
2019-05-21T01:28:32.877Z,14.50
2019-05-21T01:29:32.863Z,14.53
2019-05-21T01:30:32.859Z,14.54
2019-05-21T01:31:32.858Z,14.51
2019-05-21T01:32:32.856Z,14.53
2019-05-21T01:33:32.854Z,14.51
2019-05-21T01:34:33.025Z,14.51
2019-05-21T01:35:32.851Z,14.48
2019-05-21T01:36:32.848Z,14.41
2019-05-21T01:37:32.846Z,14.45
2019-05-21T01:38:32.843Z,14.48
2019-05-21T01:39:32.841Z,14.45
2019-05-21T01:40:32.839Z,14.50
2019-05-21T01:41:32.838Z,14.47
2019-05-21T01:42:32.834Z,14.45
2019-05-21T01:43:32.833Z,14.35
2019-05-21T01:44:32.832Z,14.30
2019-05-21T01:45:32.830Z,14.36
2019-05-21T01:46:32.826Z,14.44
2019-05-21T01:47:32.823Z,14.47
2019-05-21T01:48:32.821Z,14.51
2019-05-21T01:49:32.820Z,14.36
2019-05-21T01:50:32.817Z,14.37
2019-05-21T01:51:32.835Z,14.35
2019-05-21T01:52:32.812Z,14.36
2019-05-21T01:53:32.811Z,14.43
2019-05-21T01:54:32.808Z,14.32
2019-05-21T01:55:32.806Z,14.33
2019-05-21T01:56:32.808Z,14.35
2019-05-21T01:57:32.802Z,14.37
2019-05-21T01:58:32.799Z,14.30
2019-05-21T01:59:32.798Z,14.48
2019-05-21T02:00:32.794Z,14.41
2019-05-21T02:01:32.793Z,14.35
2019-05-21T02:02:32.790Z,14.37
2019-05-21T02:03:32.788Z,14.35
2019-05-21T02:04:32.789Z,14.37
2019-05-21T02:05:33.604Z,14.32
2019-05-21T02:06:32.782Z,14.35
2019-05-21T02:07:32.780Z,14.35
2019-05-21T02:08:32.785Z,14.30
2019-05-21T02:09:32.776Z,14.29
2019-05-21T02:10:32.772Z,14.35
2019-05-21T02:11:32.771Z,14.35
2019-05-21T02:12:32.770Z,14.33
2019-05-21T02:13:32.767Z,14.33
2019-05-21T02:14:32.765Z,14.32
2019-05-21T02:15:32.767Z,14.33
2019-05-21T02:16:32.760Z,14.29
2019-05-21T02:17:32.758Z,14.28
2019-05-21T02:18:32.753Z,14.32
2019-05-21T02:19:32.753Z,14.26
2019-05-21T02:20:32.750Z,14.22
2019-05-21T02:21:32.748Z,14.32
2019-05-21T02:22:32.746Z,14.33
2019-05-21T02:23:32.743Z,14.37
2019-05-21T02:24:32.743Z,14.41
2019-05-21T02:25:32.813Z,14.35
2019-05-21T02:26:32.738Z,14.41
2019-05-21T02:27:32.734Z,14.43
2019-05-21T02:28:32.733Z,14.41
2019-05-21T02:29:32.730Z,14.48
2019-05-21T02:30:32.731Z,14.43
2019-05-21T02:31:32.731Z,14.37
2019-05-21T02:32:32.724Z,14.41
2019-05-21T02:33:32.723Z,14.45
2019-05-21T02:34:32.724Z,14.40
2019-05-21T02:35:32.720Z,14.40
2019-05-21T02:36:32.715Z,14.53
2019-05-21T02:37:32.716Z,14.48
2019-05-21T02:38:32.711Z,14.50
2019-05-21T02:39:32.708Z,14.40
2019-05-21T02:40:32.707Z,14.55
2019-05-21T02:41:32.710Z,14.47
2019-05-21T02:42:32.702Z,14.45
2019-05-21T02:43:32.705Z,14.53
2019-05-21T02:44:32.699Z,14.50
2019-05-21T02:45:32.696Z,14.51
2019-05-21T02:46:32.693Z,14.53
2019-05-21T02:47:32.691Z,14.58
2019-05-21T02:48:32.688Z,14.53
2019-05-21T02:49:32.685Z,14.54
2019-05-21T02:50:32.683Z,14.60
2019-05-21T02:51:32.681Z,14.60
2019-05-21T02:52:32.678Z,14.63
2019-05-21T02:53:34.564Z,14.68
2019-05-21T02:54:41.156Z,14.70
2019-05-21T02:55:32.675Z,14.72
2019-05-21T02:56:32.671Z,14.69
2019-05-21T02:57:32.667Z,14.70
2019-05-21T02:58:32.665Z,14.68
2019-05-21T02:59:32.662Z,14.60
2019-05-21T03:00:32.661Z,14.63
2019-05-21T03:01:32.665Z,14.70
2019-05-21T03:02:32.655Z,14.62
2019-05-21T03:03:32.653Z,14.72
2019-05-21T03:04:32.652Z,14.69
2019-05-21T03:05:32.649Z,14.78
2019-05-21T03:06:32.646Z,14.81
2019-05-21T03:07:32.645Z,14.78
2019-05-21T03:08:32.643Z,14.77
2019-05-21T03:09:32.641Z,14.70
2019-05-21T03:10:32.637Z,14.70
2019-05-21T03:11:32.634Z,14.78
2019-05-21T03:12:32.637Z,14.70
2019-05-21T03:13:32.631Z,14.70
2019-05-21T03:14:32.631Z,14.72
2019-05-21T03:15:32.624Z,14.68
2019-05-21T03:16:32.625Z,14.85
2019-05-21T03:17:32.622Z,14.78
2019-05-21T03:18:32.619Z,14.72
2019-05-21T03:19:32.616Z,14.78
2019-05-21T03:20:32.625Z,14.77
2019-05-21T03:21:32.614Z,14.81
2019-05-21T03:22:32.610Z,14.77
2019-05-21T03:23:32.609Z,14.81
2019-05-21T03:24:32.609Z,14.73
2019-05-21T03:25:32.606Z,14.70
2019-05-21T03:26:32.602Z,14.81
2019-05-21T03:27:32.606Z,14.72
2019-05-21T03:28:32.597Z,14.73
2019-05-21T03:29:32.595Z,14.78
2019-05-21T03:30:32.593Z,14.84
2019-05-21T03:31:32.595Z,14.78
2019-05-21T03:32:32.594Z,14.78
2019-05-21T03:33:32.587Z,14.77
2019-05-21T03:34:32.586Z,14.82
2019-05-21T03:35:32.582Z,14.79
2019-05-21T03:36:34.078Z,14.84
2019-05-21T03:37:32.584Z,14.84
2019-05-21T03:38:32.574Z,14.89
2019-05-21T03:39:32.573Z,14.84
2019-05-21T03:40:32.571Z,14.85
2019-05-21T03:41:32.569Z,14.85
2019-05-21T03:42:32.565Z,14.86
2019-05-21T03:43:32.565Z,14.89
2019-05-21T03:44:32.564Z,14.81
2019-05-21T03:45:32.561Z,14.82
2019-05-21T03:46:32.558Z,14.84
2019-05-21T03:47:32.556Z,14.86
2019-05-21T03:48:32.554Z,14.86
2019-05-21T03:49:32.553Z,14.85
2019-05-21T03:50:32.550Z,14.79
2019-05-21T03:51:32.550Z,14.82
2019-05-21T03:52:32.546Z,14.73
2019-05-21T03:53:32.553Z,14.78
2019-05-21T03:54:32.542Z,14.72
2019-05-21T03:55:32.539Z,14.78
2019-05-21T03:56:32.536Z,14.70
2019-05-21T03:57:32.535Z,14.72
2019-05-21T03:58:32.533Z,14.77
2019-05-21T03:59:32.534Z,14.77
2019-05-21T04:00:32.557Z,14.70
2019-05-21T04:01:32.544Z,14.82
2019-05-21T04:02:32.522Z,14.77
2019-05-21T04:03:32.522Z,14.77
2019-05-21T04:04:32.520Z,14.73
2019-05-21T04:05:32.519Z,14.77
2019-05-21T04:06:48.877Z,14.82
2019-05-21T04:07:32.514Z,14.73
2019-05-21T04:08:32.509Z,14.69
2019-05-21T04:09:32.509Z,14.69
2019-05-21T04:10:32.507Z,14.68
2019-05-21T04:11:32.504Z,14.70
2019-05-21T04:12:32.502Z,14.68
2019-05-21T04:13:32.502Z,14.72
2019-05-21T04:14:32.495Z,14.77
2019-05-21T04:15:32.496Z,14.72
2019-05-21T04:16:32.493Z,14.72
2019-05-21T04:17:34.849Z,14.69
2019-05-21T04:18:32.488Z,14.72
2019-05-21T04:19:32.490Z,14.73
2019-05-21T04:20:32.487Z,14.69
2019-05-21T04:21:32.483Z,14.77
2019-05-21T04:22:32.482Z,14.72
2019-05-21T04:23:32.477Z,14.66
2019-05-21T04:24:32.474Z,14.77
2019-05-21T04:25:32.506Z,14.69
2019-05-21T04:26:32.470Z,14.77
2019-05-21T04:27:32.468Z,14.72
2019-05-21T04:28:32.471Z,14.70
2019-05-21T04:29:32.472Z,14.70
2019-05-21T04:30:32.490Z,14.77
2019-05-21T04:31:32.473Z,14.78
2019-05-21T04:32:32.470Z,14.77
2019-05-21T04:33:32.456Z,14.69
2019-05-21T04:34:32.453Z,14.70
2019-05-21T04:35:32.450Z,14.69
2019-05-21T04:36:32.456Z,14.72
2019-05-21T04:37:32.466Z,14.73
2019-05-21T04:38:32.443Z,14.73
2019-05-21T04:39:32.458Z,14.72
2019-05-21T04:40:32.444Z,14.77
2019-05-21T04:41:32.437Z,14.70
2019-05-21T04:42:32.438Z,14.68
2019-05-21T04:43:32.439Z,14.73
2019-05-21T04:44:32.434Z,14.78
2019-05-21T04:45:32.432Z,14.77
2019-05-21T04:46:32.438Z,14.72
2019-05-21T04:47:32.424Z,14.69
2019-05-21T04:48:32.426Z,14.77
2019-05-21T04:49:32.419Z,14.77
2019-05-21T04:50:32.422Z,14.68
2019-05-21T04:51:32.439Z,14.62
2019-05-21T04:52:32.415Z,14.65
2019-05-21T04:53:32.412Z,14.65
2019-05-21T04:54:32.409Z,14.66
2019-05-21T04:55:32.405Z,14.63
2019-05-21T04:56:32.405Z,14.65
2019-05-21T04:57:32.404Z,14.69
2019-05-21T04:58:32.398Z,14.69
2019-05-21T04:59:32.396Z,14.66
2019-05-21T05:00:32.400Z,14.69
2019-05-21T05:01:32.399Z,14.68
2019-05-21T05:02:32.391Z,14.65
2019-05-21T05:03:32.391Z,14.63
2019-05-21T05:04:32.385Z,14.63
2019-05-21T05:05:32.384Z,14.73
2019-05-21T05:06:32.385Z,14.60
2019-05-21T05:07:32.382Z,14.59
2019-05-21T05:08:32.377Z,14.69
2019-05-21T05:09:32.375Z,14.72
2019-05-21T05:10:32.386Z,14.66
2019-05-21T05:11:32.370Z,14.73
2019-05-21T05:12:32.371Z,14.72
2019-05-21T05:13:32.366Z,14.72
2019-05-21T05:14:32.369Z,14.73
2019-05-21T05:15:32.361Z,14.70
2019-05-21T05:16:32.361Z,14.72
2019-05-21T05:17:32.366Z,14.70
2019-05-21T05:18:32.354Z,14.69
2019-05-21T05:19:32.358Z,14.72
2019-05-21T05:20:32.350Z,14.68
2019-05-21T05:21:32.358Z,14.73
2019-05-21T05:22:32.346Z,14.78
2019-05-21T05:23:32.343Z,14.73
2019-05-21T05:24:32.341Z,14.68
2019-05-21T05:25:32.341Z,14.68
2019-05-21T05:26:32.337Z,14.70
2019-05-21T05:27:32.335Z,14.70
2019-05-21T05:28:32.334Z,14.73
2019-05-21T05:29:32.332Z,14.68
2019-05-21T05:30:32.335Z,14.63
2019-05-21T05:31:32.326Z,14.63
2019-05-21T05:32:32.324Z,14.72
2019-05-21T05:33:32.321Z,14.68
2019-05-21T05:34:32.320Z,14.68
2019-05-21T05:35:32.319Z,14.62
2019-05-21T05:36:32.316Z,14.48
2019-05-21T05:37:43.327Z,14.55
2019-05-21T05:38:32.312Z,14.66
2019-05-21T05:39:32.308Z,14.69
2019-05-21T05:40:32.308Z,14.60
2019-05-21T05:41:32.306Z,14.54
2019-05-21T05:42:32.303Z,14.59
2019-05-21T05:43:32.300Z,14.54
2019-05-21T05:44:32.299Z,14.62
2019-05-21T05:45:32.297Z,14.51
2019-05-21T05:46:32.294Z,14.51
2019-05-21T05:47:32.292Z,14.55
2019-05-21T05:48:32.292Z,14.51
2019-05-21T05:49:32.295Z,14.51
2019-05-21T05:50:32.286Z,14.51
2019-05-21T05:51:32.283Z,14.58
2019-05-21T05:52:32.282Z,14.54
2019-05-21T05:53:32.279Z,14.51
2019-05-21T05:54:32.279Z,14.53
2019-05-21T05:55:32.275Z,14.54
2019-05-21T05:56:32.322Z,14.55
2019-05-21T05:57:32.272Z,14.54
2019-05-21T05:58:32.269Z,14.62
2019-05-21T05:59:32.267Z,14.60
2019-05-21T06:00:32.266Z,14.60
2019-05-21T06:01:32.263Z,14.55
2019-05-21T06:02:32.263Z,14.58
2019-05-21T06:03:32.258Z,14.63
2019-05-21T06:04:32.256Z,14.55
2019-05-21T06:05:32.254Z,14.55
2019-05-21T06:06:32.250Z,14.54
2019-05-21T06:07:32.249Z,14.60
2019-05-21T06:08:32.247Z,14.63
2019-05-21T06:09:32.246Z,14.63
2019-05-21T06:10:32.245Z,14.63
2019-05-21T06:11:32.242Z,14.63
2019-05-21T06:12:32.238Z,14.70
2019-05-21T06:13:32.237Z,14.77
2019-05-21T06:14:32.234Z,14.72
2019-05-21T06:15:32.231Z,14.79
2019-05-21T06:16:32.233Z,14.77
2019-05-21T06:17:32.228Z,14.81
2019-05-21T06:18:35.384Z,14.84
2019-05-21T06:19:32.225Z,14.79
2019-05-21T06:20:32.223Z,14.82
2019-05-21T06:21:32.221Z,14.79
2019-05-21T06:22:32.221Z,14.82
2019-05-21T06:23:32.219Z,14.88
2019-05-21T06:24:32.214Z,14.85
2019-05-21T06:25:32.216Z,15.00
2019-05-21T06:26:32.209Z,14.99
2019-05-21T06:27:32.209Z,15.06
2019-05-21T06:28:32.206Z,15.06
2019-05-21T06:29:32.205Z,15.06
2019-05-21T06:30:32.201Z,15.14
2019-05-21T06:31:32.201Z,15.06
2019-05-21T06:32:32.200Z,14.97
2019-05-21T06:33:32.196Z,15.02
2019-05-21T06:34:32.194Z,14.96
2019-05-21T06:35:32.194Z,15.02
2019-05-21T06:36:32.191Z,15.00
2019-05-21T06:37:32.191Z,14.96
2019-05-21T06:38:32.186Z,14.94
2019-05-21T06:39:32.191Z,14.96
2019-05-21T06:40:32.186Z,14.94
2019-05-21T06:41:32.201Z,14.99
2019-05-21T06:42:32.179Z,14.91
2019-05-21T06:43:32.179Z,14.91
2019-05-21T06:44:32.177Z,14.92
2019-05-21T06:45:32.175Z,14.97
2019-05-21T06:46:32.172Z,14.89
2019-05-21T06:47:32.170Z,14.88
2019-05-21T06:48:32.170Z,14.82
2019-05-21T06:49:32.177Z,14.70
2019-05-21T06:50:32.168Z,14.70
2019-05-21T06:51:32.292Z,14.78
2019-05-21T06:52:32.161Z,14.79
2019-05-21T06:53:32.161Z,14.72
2019-05-21T06:54:32.157Z,14.59
2019-05-21T06:55:32.163Z,14.72
2019-05-21T06:56:32.156Z,14.77
2019-05-21T06:57:32.163Z,14.72
2019-05-21T06:58:32.156Z,14.78
2019-05-21T06:59:32.147Z,14.78
2019-05-21T07:00:32.147Z,14.78
2019-05-21T07:01:32.146Z,14.81
2019-05-21T07:02:32.142Z,14.81
2019-05-21T07:03:32.142Z,14.77
2019-05-21T07:04:32.140Z,14.73
2019-05-21T07:05:32.139Z,14.78
2019-05-21T07:06:32.136Z,14.81
2019-05-21T07:07:32.135Z,14.78
2019-05-21T07:08:35.054Z,14.77
2019-05-21T07:09:32.131Z,14.72
2019-05-21T07:10:32.129Z,14.78
2019-05-21T07:11:32.125Z,14.77
2019-05-21T07:12:32.124Z,14.79
2019-05-21T07:13:32.173Z,14.79
2019-05-21T07:14:32.119Z,14.84
2019-05-21T07:15:32.117Z,14.82
2019-05-21T07:16:32.117Z,14.81
2019-05-21T07:17:32.115Z,14.88
2019-05-21T07:18:32.113Z,14.84
2019-05-21T07:19:32.115Z,14.89
2019-05-21T07:20:32.110Z,14.79
2019-05-21T07:21:32.111Z,14.81
2019-05-21T07:22:32.117Z,14.84
2019-05-21T07:23:32.104Z,14.85
2019-05-21T07:24:32.102Z,14.97
2019-05-21T07:25:32.101Z,14.94
2019-05-21T07:26:32.109Z,14.99
2019-05-21T07:27:32.096Z,14.99
2019-05-21T07:28:32.173Z,14.88
2019-05-21T07:29:32.092Z,15.02
2019-05-21T07:30:32.091Z,14.79
2019-05-21T07:31:32.088Z,14.88
2019-05-21T07:32:32.088Z,14.81
2019-05-21T07:33:32.086Z,14.91
2019-05-21T07:34:32.087Z,15.00
2019-05-21T07:35:32.083Z,15.02
2019-05-21T07:36:32.081Z,15.06
2019-05-21T07:37:32.078Z,15.04
2019-05-21T07:38:32.079Z,15.15
2019-05-21T07:39:32.075Z,15.14
2019-05-21T07:40:32.073Z,15.03
2019-05-21T07:41:32.073Z,15.18
2019-05-21T07:42:32.071Z,15.18
2019-05-21T07:43:32.074Z,15.25
2019-05-21T07:44:32.068Z,15.17
2019-05-21T07:45:32.066Z,15.25
2019-05-21T07:46:32.065Z,14.99
2019-05-21T07:47:32.062Z,15.17
2019-05-21T07:48:32.061Z,15.15
2019-05-21T07:49:32.060Z,15.18
2019-05-21T07:50:32.057Z,15.14
2019-05-21T07:51:32.057Z,14.99
2019-05-21T07:52:32.055Z,15.02
2019-05-21T07:53:32.071Z,15.03
2019-05-21T07:54:32.052Z,14.97
2019-05-21T07:55:32.049Z,15.06
2019-05-21T07:56:32.049Z,15.02
2019-05-21T07:57:32.062Z,14.99
2019-05-21T07:58:32.050Z,14.97
2019-05-21T07:59:32.043Z,15.02
2019-05-21T08:00:32.048Z,15.00
2019-05-21T08:01:32.043Z,15.00
2019-05-21T08:02:32.039Z,15.17
2019-05-21T08:03:32.037Z,15.17
2019-05-21T08:04:32.035Z,15.27
2019-05-21T08:05:32.037Z,15.29
2019-05-21T08:06:32.037Z,15.25
2019-05-21T08:07:32.032Z,15.28
2019-05-21T08:08:32.031Z,15.42
2019-05-21T08:09:32.030Z,15.37
2019-05-21T08:10:32.030Z,15.28
2019-05-21T08:11:32.025Z,15.22
2019-05-21T08:12:39.078Z,15.29
2019-05-21T08:13:32.024Z,15.17
2019-05-21T08:14:32.022Z,15.27
2019-05-21T08:15:32.021Z,15.19
2019-05-21T08:16:32.020Z,15.11
2019-05-21T08:17:32.022Z,15.10
2019-05-21T08:18:32.015Z,15.17
2019-05-21T08:19:32.016Z,15.02
2019-05-21T08:20:32.014Z,14.85
2019-05-21T08:21:32.014Z,14.77
2019-05-21T08:22:32.010Z,14.79
2019-05-21T08:23:32.009Z,14.68
2019-05-21T08:24:32.008Z,14.70
2019-05-21T08:25:32.008Z,14.82
2019-05-21T08:26:32.006Z,14.81
2019-05-21T08:27:32.011Z,14.82
2019-05-21T08:28:32.002Z,14.86
2019-05-21T08:29:32.001Z,14.94
2019-05-21T08:30:31.997Z,14.85
2019-05-21T08:31:31.997Z,14.88
2019-05-21T08:32:31.996Z,14.91
2019-05-21T08:33:31.994Z,14.88
2019-05-21T08:34:31.997Z,14.96
2019-05-21T08:35:31.991Z,14.85
2019-05-21T08:36:31.989Z,15.00
2019-05-21T08:37:31.988Z,14.84
2019-05-21T08:38:31.986Z,14.69
2019-05-21T08:39:31.994Z,14.77
2019-05-21T08:40:31.984Z,14.78
2019-05-21T08:41:31.983Z,14.72
2019-05-21T08:42:31.979Z,14.69
2019-05-21T08:43:31.978Z,14.79
2019-05-21T08:44:31.980Z,14.78
2019-05-21T08:45:31.978Z,14.70
2019-05-21T08:46:31.982Z,14.85
2019-05-21T08:47:31.971Z,14.70
2019-05-21T08:48:31.970Z,14.78
2019-05-21T08:49:31.969Z,14.91
2019-05-21T08:50:31.966Z,14.78
2019-05-21T08:51:31.964Z,14.79
2019-05-21T08:52:31.971Z,14.70
2019-05-21T08:53:31.963Z,14.70
2019-05-21T08:54:31.959Z,14.72
2019-05-21T08:55:31.958Z,14.73
2019-05-21T08:56:32.015Z,14.70
2019-05-21T08:57:31.954Z,14.59
2019-05-21T08:58:31.951Z,14.58
2019-05-21T08:59:31.955Z,14.59
2019-05-21T09:00:31.960Z,14.62
2019-05-21T09:01:31.947Z,14.69
2019-05-21T09:02:31.950Z,14.85
2019-05-21T09:03:31.945Z,14.72
2019-05-21T09:04:45.982Z,14.70
2019-05-21T09:05:31.939Z,14.79
2019-05-21T09:06:31.937Z,14.72
2019-05-21T09:07:31.938Z,14.73
2019-05-21T09:08:31.934Z,14.63
2019-05-21T09:09:48.537Z,14.73
2019-05-21T09:10:31.929Z,14.77
2019-05-21T09:11:31.929Z,14.70
2019-05-21T09:12:31.929Z,14.72
2019-05-21T09:13:31.926Z,14.77
2019-05-21T09:14:31.923Z,14.84
2019-05-21T09:15:31.922Z,14.85
2019-05-21T09:16:31.921Z,14.70
2019-05-21T09:17:31.918Z,14.65
2019-05-21T09:18:31.917Z,14.70
2019-05-21T09:19:36.094Z,14.78
2019-05-21T09:20:31.914Z,14.72
2019-05-21T09:21:31.913Z,14.77
2019-05-21T09:22:31.910Z,14.88
2019-05-21T09:23:31.917Z,14.78
2019-05-21T09:24:31.906Z,14.70
2019-05-21T09:25:31.903Z,14.73
2019-05-21T09:26:31.902Z,14.84
2019-05-21T09:27:31.906Z,14.82
2019-05-21T09:28:31.899Z,14.82
2019-05-21T09:29:31.897Z,14.82
2019-05-21T09:30:31.899Z,14.82
2019-05-21T09:31:31.897Z,14.73
2019-05-21T09:32:31.894Z,14.79
2019-05-21T09:33:31.889Z,14.72
2019-05-21T09:34:47.384Z,14.73
2019-05-21T09:35:31.886Z,14.55
2019-05-21T09:36:31.885Z,14.53
2019-05-21T09:37:31.882Z,14.66
2019-05-21T09:38:31.881Z,14.59
2019-05-21T09:39:31.878Z,14.65
2019-05-21T09:40:31.876Z,14.62
2019-05-21T09:41:31.875Z,14.69
2019-05-21T09:42:31.872Z,14.63
2019-05-21T09:43:31.870Z,14.53
2019-05-21T09:44:31.869Z,14.63
2019-05-21T09:45:31.867Z,14.60
2019-05-21T09:46:31.864Z,14.66
2019-05-21T09:47:31.862Z,14.63
2019-05-21T09:48:31.861Z,14.63
2019-05-21T09:49:31.881Z,14.69
2019-05-21T09:50:31.861Z,14.78
2019-05-21T09:51:31.855Z,14.78
2019-05-21T09:52:31.855Z,14.72
2019-05-21T09:53:31.851Z,14.72
2019-05-21T09:54:31.849Z,14.65
2019-05-21T09:55:33.731Z,14.66
2019-05-21T09:56:31.845Z,14.72
2019-05-21T09:57:31.845Z,14.73
2019-05-21T09:58:31.841Z,14.70
2019-05-21T09:59:31.839Z,14.70
2019-05-21T10:00:31.836Z,14.66
2019-05-21T10:01:31.835Z,14.60
2019-05-21T10:02:31.835Z,14.72
2019-05-21T10:03:31.831Z,14.73
2019-05-21T10:04:31.829Z,14.77
2019-05-21T10:05:31.834Z,14.73
2019-05-21T10:06:31.827Z,14.85
2019-05-21T10:07:39.993Z,14.85
2019-05-21T10:08:31.822Z,14.82
2019-05-21T10:09:31.820Z,14.84
2019-05-21T10:10:31.817Z,14.88
2019-05-21T10:11:31.816Z,14.81
2019-05-21T10:12:31.814Z,14.79
2019-05-21T10:13:31.818Z,14.86
2019-05-21T10:14:34.095Z,15.02
2019-05-21T10:15:31.808Z,15.02
2019-05-21T10:16:31.806Z,14.99
2019-05-21T10:17:31.805Z,15.06
2019-05-21T10:18:31.802Z,15.02
2019-05-21T10:19:31.803Z,15.04
2019-05-21T10:20:31.799Z,15.07
2019-05-21T10:21:31.802Z,15.15
2019-05-21T10:22:31.805Z,15.24
2019-05-21T10:23:31.795Z,15.27
2019-05-21T10:24:31.791Z,15.27
2019-05-21T10:25:31.790Z,15.33
2019-05-21T10:26:31.790Z,15.33
2019-05-21T10:27:31.788Z,15.35
2019-05-21T10:28:31.785Z,15.28
2019-05-21T10:29:31.783Z,15.18
2019-05-21T10:30:31.781Z,15.22
2019-05-21T10:31:31.780Z,15.14
2019-05-21T10:32:31.796Z,15.28
2019-05-21T10:33:31.778Z,15.24
2019-05-21T10:34:31.780Z,15.15
2019-05-21T10:35:31.774Z,15.24
2019-05-21T10:36:31.773Z,15.29
2019-05-21T10:37:31.769Z,15.33
2019-05-21T10:38:31.769Z,15.27
2019-05-21T10:39:31.780Z,15.24
2019-05-21T10:40:31.765Z,15.22
2019-05-21T10:41:31.765Z,15.31
2019-05-21T10:42:31.805Z,15.28
2019-05-21T10:43:31.760Z,15.42
2019-05-21T10:44:31.759Z,15.40
2019-05-21T10:45:31.758Z,15.40
2019-05-21T10:46:31.760Z,15.35
2019-05-21T10:47:31.753Z,15.40
2019-05-21T10:48:31.757Z,15.43
2019-05-21T10:49:31.751Z,15.51
2019-05-21T10:50:31.749Z,15.52
2019-05-21T10:51:31.748Z,15.54
2019-05-21T10:52:31.747Z,15.49
2019-05-21T10:53:31.746Z,15.55
2019-05-21T10:54:31.744Z,15.54
2019-05-21T10:55:31.742Z,15.46
2019-05-21T10:56:46.653Z,15.49
2019-05-21T10:57:31.744Z,15.59
2019-05-21T10:58:31.738Z,15.57
2019-05-21T10:59:31.735Z,15.58
2019-05-21T11:00:31.735Z,15.59
2019-05-21T11:01:31.737Z,15.70
2019-05-21T11:02:31.736Z,15.70
2019-05-21T11:03:31.731Z,15.77
2019-05-21T11:04:31.729Z,15.79
2019-05-21T11:05:31.729Z,15.84
2019-05-21T11:06:31.729Z,15.86
2019-05-21T11:07:31.725Z,15.84
2019-05-21T11:08:31.723Z,15.88
2019-05-21T11:09:31.724Z,16.00
2019-05-21T11:10:31.721Z,15.92
2019-05-21T11:11:31.720Z,15.98
2019-05-21T11:12:31.763Z,15.92
2019-05-21T11:13:31.724Z,15.92
2019-05-21T11:14:31.717Z,15.92
2019-05-21T11:15:31.736Z,15.86
2019-05-21T11:16:31.718Z,16.01
2019-05-21T11:17:46.821Z,16.04
2019-05-21T11:18:31.717Z,15.98
2019-05-21T11:19:31.715Z,15.91
2019-05-21T11:20:31.716Z,15.91
2019-05-21T11:21:31.717Z,15.92
2019-05-21T11:22:31.736Z,16.04
2019-05-21T11:23:31.707Z,15.83
2019-05-21T11:24:31.704Z,15.86
2019-05-21T11:25:31.706Z,15.90
2019-05-21T11:26:31.702Z,15.91
2019-05-21T11:27:31.705Z,15.86
2019-05-21T11:28:31.701Z,15.91
2019-05-21T11:29:31.700Z,15.94
2019-05-21T11:30:31.764Z,16.01
2019-05-21T11:31:31.698Z,16.01
2019-05-21T11:32:31.700Z,15.95
2019-05-21T11:33:31.696Z,16.00
2019-05-21T11:34:31.694Z,16.08
2019-05-21T11:35:31.693Z,16.02
2019-05-21T11:36:31.691Z,16.12
2019-05-21T11:37:31.689Z,16.20
2019-05-21T11:38:39.376Z,16.10
2019-05-21T11:39:31.688Z,16.05
2019-05-21T11:40:31.693Z,16.15
2019-05-21T11:41:31.687Z,16.13
2019-05-21T11:42:31.685Z,16.15
2019-05-21T11:43:31.685Z,16.16
2019-05-21T11:44:31.684Z,16.09
2019-05-21T11:45:32.950Z,16.08
2019-05-21T11:46:31.680Z,16.01
2019-05-21T11:47:31.684Z,16.04
2019-05-21T11:48:31.679Z,16.21
2019-05-21T11:49:31.679Z,16.23
2019-05-21T11:50:31.677Z,16.15
2019-05-21T11:51:31.676Z,16.13
2019-05-21T11:52:31.676Z,16.20
2019-05-21T11:53:32.117Z,16.13
2019-05-21T11:54:31.673Z,16.31
2019-05-21T11:55:31.673Z,16.21
2019-05-21T11:56:31.673Z,16.31
2019-05-21T11:57:31.673Z,16.17
2019-05-21T11:58:31.695Z,16.33
2019-05-21T11:59:31.667Z,16.39
2019-05-21T12:00:31.668Z,16.39
2019-05-21T12:01:31.668Z,16.50
2019-05-21T12:02:31.672Z,16.56
2019-05-21T12:03:31.667Z,16.50
2019-05-21T12:04:31.667Z,16.43
2019-05-21T12:05:31.666Z,16.47
2019-05-21T12:06:31.662Z,16.58
2019-05-21T12:07:31.661Z,16.51
2019-05-21T12:08:31.663Z,16.43
2019-05-21T12:09:31.660Z,16.56
2019-05-21T12:10:31.659Z,16.51
2019-05-21T12:11:31.658Z,16.69
2019-05-21T12:12:31.659Z,16.68
2019-05-21T12:13:31.661Z,16.57
2019-05-21T12:14:31.658Z,16.66
2019-05-21T12:15:31.656Z,16.68
2019-05-21T12:16:31.670Z,16.71
2019-05-21T12:17:31.656Z,16.81
2019-05-21T12:18:31.654Z,16.78
2019-05-21T12:19:31.653Z,16.93
2019-05-21T12:20:36.740Z,16.86
2019-05-21T12:21:31.652Z,16.90
2019-05-21T12:22:31.650Z,16.93
2019-05-21T12:23:31.651Z,16.96
2019-05-21T12:24:31.650Z,17.02
2019-05-21T12:25:31.649Z,17.02
2019-05-21T12:26:31.648Z,16.99
2019-05-21T12:27:31.647Z,16.94
2019-05-21T12:28:31.650Z,17.01
2019-05-21T12:29:34.167Z,17.05
2019-05-21T12:30:31.656Z,17.05
2019-05-21T12:31:31.652Z,17.06
2019-05-21T12:32:31.649Z,17.12
2019-05-21T12:33:34.902Z,17.06
2019-05-21T12:34:31.648Z,17.14
2019-05-21T12:35:31.650Z,16.97
2019-05-21T12:36:31.645Z,16.89
2019-05-21T12:37:31.647Z,16.83
2019-05-21T12:38:31.644Z,16.86
2019-05-21T12:39:31.646Z,16.87
2019-05-21T12:40:31.645Z,16.79
2019-05-21T12:41:31.646Z,16.74
2019-05-21T12:42:31.649Z,16.76
2019-05-21T12:43:31.688Z,16.74
2019-05-21T12:44:31.642Z,16.84
2019-05-21T12:45:31.642Z,16.72
2019-05-21T12:46:31.651Z,16.79
2019-05-21T12:47:31.641Z,16.72
2019-05-21T12:48:31.640Z,16.75
2019-05-21T12:49:31.641Z,16.79
2019-05-21T12:50:31.645Z,16.89
2019-05-21T12:51:31.643Z,16.94
2019-05-21T12:52:33.768Z,17.01